sensor_id;sensor_type;location;lat;lon;timestamp;temperature;humidity
26954;DHT22;14508;50.924;11.600;2024-01-30T00:02:20;2.40;99.90
26954;DHT22;14508;50.924;11.600;2024-01-30T00:04:49;2.40;99.90
26954;DHT22;14508;50.924;11.600;2024-01-30T00:07:17;2.40;99.90
26954;DHT22;14508;50.924;11.600;2024-01-30T00:09:46;2.50;99.90
26954;DHT22;14508;50.924;11.600;2024-01-30T00:12:14;2.50;99.90
26954;DHT22;14508;50.924;11.600;2024-01-30T00:14:42;2.50;99.90
26954;DHT22;14508;50.924;11.600;2024-01-30T00:17:11;2.50;99.90
26954;DHT22;14508;50.924;11.600;2024-01-30T00:19:38;2.50;99.90
26954;DHT22;14508;50.924;11.600;2024-01-30T00:22:08;2.50;99.90
26954;DHT22;14508;50.924;11.600;2024-01-30T00:24:36;2.60;99.90
26954;DHT22;14508;50.924;11.600;2024-01-30T00:27:04;2.60;99.90
26954;DHT22;14508;50.924;11.600;2024-01-30T00:29:32;2.60;99.90
26954;DHT22;14508;50.924;11.600;2024-01-30T00:32:00;2.60;99.90
26954;DHT22;14508;50.924;11.600;2024-01-30T00:34:28;2.60;99.90
26954;DHT22;14508;50.924;11.600;2024-01-30T00:36:56;2.60;99.90
26954;DHT22;14508;50.924;11.600;2024-01-30T00:39:26;2.70;99.90
26954;DHT22;14508;50.924;11.600;2024-01-30T00:41:53;2.70;99.90
26954;DHT22;14508;50.924;11.600;2024-01-30T00:44:21;2.70;99.90
26954;DHT22;14508;50.924;11.600;2024-01-30T00:46:49;2.70;99.90
26954;DHT22;14508;50.924;11.600;2024-01-30T00:49:17;2.70;99.90
26954;DHT22;14508;50.924;11.600;2024-01-30T00:51:45;2.70;99.90
26954;DHT22;14508;50.924;11.600;2024-01-30T00:54:13;2.70;99.90
26954;DHT22;14508;50.924;11.600;2024-01-30T00:56:43;2.70;99.90
26954;DHT22;14508;50.924;11.600;2024-01-30T00:59:11;2.70;99.90
26954;DHT22;14508;50.924;11.600;2024-01-30T01:01:39;2.70;99.90
26954;DHT22;14508;50.924;11.600;2024-01-30T01:04:07;2.70;99.90
26954;DHT22;14508;50.924;11.600;2024-01-30T01:06:35;2.70;99.90
26954;DHT22;14508;50.924;11.600;2024-01-30T01:09:03;2.70;99.90
26954;DHT22;14508;50.924;11.600;2024-01-30T01:11:31;2.70;99.90
26954;DHT22;14508;50.924;11.600;2024-01-30T01:14:00;2.70;99.90
26954;DHT22;14508;50.924;11.600;2024-01-30T01:16:28;2.70;99.90
26954;DHT22;14508;50.924;11.600;2024-01-30T01:18:56;2.70;99.90
26954;DHT22;14508;50.924;11.600;2024-01-30T01:21:24;2.60;99.90
26954;DHT22;14508;50.924;11.600;2024-01-30T01:23:52;2.60;99.90
26954;DHT22;14508;50.924;11.600;2024-01-30T01:26:20;2.60;99.90
26954;DHT22;14508;50.924;11.600;2024-01-30T01:28:49;2.60;99.90
26954;DHT22;14508;50.924;11.600;2024-01-30T01:31:18;2.60;99.90
26954;DHT22;14508;50.924;11.600;2024-01-30T01:33:46;2.70;99.90
26954;DHT22;14508;50.924;11.600;2024-01-30T01:36:14;2.60;99.90
26954;DHT22;14508;50.924;11.600;2024-01-30T01:38:42;2.60;99.90
26954;DHT22;14508;50.924;11.600;2024-01-30T01:41:09;2.60;99.90
26954;DHT22;14508;50.924;11.600;2024-01-30T01:43:37;2.60;99.90
26954;DHT22;14508;50.924;11.600;2024-01-30T01:46:06;2.60;99.90
26954;DHT22;14508;50.924;11.600;2024-01-30T01:48:36;2.60;99.90
26954;DHT22;14508;50.924;11.600;2024-01-30T01:51:06;2.60;99.90
26954;DHT22;14508;50.924;11.600;2024-01-30T01:53:34;2.60;99.90
26954;DHT22;14508;50.924;11.600;2024-01-30T01:56:03;2.60;99.90
26954;DHT22;14508;50.924;11.600;2024-01-30T01:58:31;2.60;99.90
26954;DHT22;14508;50.924;11.600;2024-01-30T02:00:59;2.60;99.90
26954;DHT22;14508;50.924;11.600;2024-01-30T02:03:27;2.60;99.90
26954;DHT22;14508;50.924;11.600;2024-01-30T02:05:57;2.70;99.90
26954;DHT22;14508;50.924;11.600;2024-01-30T02:08:26;2.70;99.90
26954;DHT22;14508;50.924;11.600;2024-01-30T02:10:54;2.70;99.90
26954;DHT22;14508;50.924;11.600;2024-01-30T02:13:22;2.70;99.90
26954;DHT22;14508;50.924;11.600;2024-01-30T02:15:51;2.70;99.90
26954;DHT22;14508;50.924;11.600;2024-01-30T02:18:20;2.70;99.90
26954;DHT22;14508;50.924;11.600;2024-01-30T02:20:48;2.70;99.90
26954;DHT22;14508;50.924;11.600;2024-01-30T02:23:18;2.70;99.90
26954;DHT22;14508;50.924;11.600;2024-01-30T02:25:47;2.70;99.90
26954;DHT22;14508;50.924;11.600;2024-01-30T02:28:15;2.70;99.90
26954;DHT22;14508;50.924;11.600;2024-01-30T02:30:43;2.70;99.90
26954;DHT22;14508;50.924;11.600;2024-01-30T02:33:11;2.60;99.90
26954;DHT22;14508;50.924;11.600;2024-01-30T02:35:39;2.60;99.90
26954;DHT22;14508;50.924;11.600;2024-01-30T02:38:07;2.60;99.90
26954;DHT22;14508;50.924;11.600;2024-01-30T02:40:36;2.50;99.90
26954;DHT22;14508;50.924;11.600;2024-01-30T02:43:04;2.50;99.90
26954;DHT22;14508;50.924;11.600;2024-01-30T02:45:32;2.50;99.90
26954;DHT22;14508;50.924;11.600;2024-01-30T02:48:00;2.50;99.90
26954;DHT22;14508;50.924;11.600;2024-01-30T02:50:28;2.50;99.90
26954;DHT22;14508;50.924;11.600;2024-01-30T02:52:56;2.40;99.90
26954;DHT22;14508;50.924;11.600;2024-01-30T02:55:23;2.40;99.90
26954;DHT22;14508;50.924;11.600;2024-01-30T02:57:53;2.40;99.90
26954;DHT22;14508;50.924;11.600;2024-01-30T03:00:21;2.40;99.90
26954;DHT22;14508;50.924;11.600;2024-01-30T03:02:49;2.40;99.90
26954;DHT22;14508;50.924;11.600;2024-01-30T03:05:16;2.30;99.90
26954;DHT22;14508;50.924;11.600;2024-01-30T03:07:44;2.30;99.90
26954;DHT22;14508;50.924;11.600;2024-01-30T03:10:12;2.30;99.90
26954;DHT22;14508;50.924;11.600;2024-01-30T03:12:40;2.30;99.90
26954;DHT22;14508;50.924;11.600;2024-01-30T03:15:09;2.30;99.90
26954;DHT22;14508;50.924;11.600;2024-01-30T03:17:37;2.20;99.90
26954;DHT22;14508;50.924;11.600;2024-01-30T03:20:06;2.20;99.90
26954;DHT22;14508;50.924;11.600;2024-01-30T03:22:34;2.20;99.90
26954;DHT22;14508;50.924;11.600;2024-01-30T03:25:02;2.20;99.90
26954;DHT22;14508;50.924;11.600;2024-01-30T03:27:30;2.10;99.90
26954;DHT22;14508;50.924;11.600;2024-01-30T03:29:58;2.10;99.90
26954;DHT22;14508;50.924;11.600;2024-01-30T03:32:27;2.10;99.90
26954;DHT22;14508;50.924;11.600;2024-01-30T03:34:55;2.10;99.90
26954;DHT22;14508;50.924;11.600;2024-01-30T03:37:25;2.10;99.90
26954;DHT22;14508;50.924;11.600;2024-01-30T03:39:53;2.10;99.90
26954;DHT22;14508;50.924;11.600;2024-01-30T03:42:21;2.00;99.90
26954;DHT22;14508;50.924;11.600;2024-01-30T03:44:49;2.00;99.90
26954;DHT22;14508;50.924;11.600;2024-01-30T03:47:18;2.00;99.90
26954;DHT22;14508;50.924;11.600;2024-01-30T03:49:47;2.00;99.90
26954;DHT22;14508;50.924;11.600;2024-01-30T03:52:15;2.00;99.90
26954;DHT22;14508;50.924;11.600;2024-01-30T03:54:43;2.00;99.90
26954;DHT22;14508;50.924;11.600;2024-01-30T03:57:11;2.00;99.90
26954;DHT22;14508;50.924;11.600;2024-01-30T03:59:41;2.00;99.90
26954;DHT22;14508;50.924;11.600;2024-01-30T04:02:10;2.00;99.90
26954;DHT22;14508;50.924;11.600;2024-01-30T04:04:38;2.00;99.90
26954;DHT22;14508;50.924;11.600;2024-01-30T04:07:08;2.00;99.90
26954;DHT22;14508;50.924;11.600;2024-01-30T04:09:36;1.90;99.90
26954;DHT22;14508;50.924;11.600;2024-01-30T04:12:04;1.90;99.90
26954;DHT22;14508;50.924;11.600;2024-01-30T04:14:32;1.90;99.90
26954;DHT22;14508;50.924;11.600;2024-01-30T04:17:00;1.80;99.90
26954;DHT22;14508;50.924;11.600;2024-01-30T04:19:27;1.80;99.90
26954;DHT22;14508;50.924;11.600;2024-01-30T04:21:55;1.80;99.90
26954;DHT22;14508;50.924;11.600;2024-01-30T04:24:26;1.80;99.90
26954;DHT22;14508;50.924;11.600;2024-01-30T04:26:54;1.80;99.90
26954;DHT22;14508;50.924;11.600;2024-01-30T04:29:21;1.80;99.90
26954;DHT22;14508;50.924;11.600;2024-01-30T04:31:50;1.70;99.90
26954;DHT22;14508;50.924;11.600;2024-01-30T04:34:18;1.70;99.90
26954;DHT22;14508;50.924;11.600;2024-01-30T04:36:46;1.60;99.90
26954;DHT22;14508;50.924;11.600;2024-01-30T04:39:14;1.60;99.90
26954;DHT22;14508;50.924;11.600;2024-01-30T04:41:43;1.50;99.90
26954;DHT22;14508;50.924;11.600;2024-01-30T04:44:11;1.50;99.90
26954;DHT22;14508;50.924;11.600;2024-01-30T04:46:39;1.50;99.90
26954;DHT22;14508;50.924;11.600;2024-01-30T04:49:08;1.50;99.90
26954;DHT22;14508;50.924;11.600;2024-01-30T04:51:36;1.40;99.90
26954;DHT22;14508;50.924;11.600;2024-01-30T04:54:04;1.50;99.90
26954;DHT22;14508;50.924;11.600;2024-01-30T04:56:32;1.50;99.90
26954;DHT22;14508;50.924;11.600;2024-01-30T04:59:02;1.40;99.90
26954;DHT22;14508;50.924;11.600;2024-01-30T05:01:29;1.40;99.90
26954;DHT22;14508;50.924;11.600;2024-01-30T05:03:57;1.40;99.90
26954;DHT22;14508;50.924;11.600;2024-01-30T05:06:25;1.40;99.90
26954;DHT22;14508;50.924;11.600;2024-01-30T05:08:53;1.40;99.90
26954;DHT22;14508;50.924;11.600;2024-01-30T05:11:21;1.40;99.90
26954;DHT22;14508;50.924;11.600;2024-01-30T05:13:49;1.40;99.90
26954;DHT22;14508;50.924;11.600;2024-01-30T05:16:18;1.40;99.90
26954;DHT22;14508;50.924;11.600;2024-01-30T05:18:46;1.40;99.90
26954;DHT22;14508;50.924;11.600;2024-01-30T05:21:14;1.40;99.90
26954;DHT22;14508;50.924;11.600;2024-01-30T05:23:42;1.40;99.90
26954;DHT22;14508;50.924;11.600;2024-01-30T05:26:10;1.40;99.90
26954;DHT22;14508;50.924;11.600;2024-01-30T05:28:38;1.40;99.90
26954;DHT22;14508;50.924;11.600;2024-01-30T05:31:06;1.40;99.90
26954;DHT22;14508;50.924;11.600;2024-01-30T05:33:35;1.40;99.90
26954;DHT22;14508;50.924;11.600;2024-01-30T05:36:03;1.60;99.90
26954;DHT22;14508;50.924;11.600;2024-01-30T05:38:31;1.50;99.90
26954;DHT22;14508;50.924;11.600;2024-01-30T05:40:59;1.60;99.90
26954;DHT22;14508;50.924;11.600;2024-01-30T05:43:27;1.60;99.90
26954;DHT22;14508;50.924;11.600;2024-01-30T05:45:55;1.50;99.90
26954;DHT22;14508;50.924;11.600;2024-01-30T05:48:23;1.50;99.90
26954;DHT22;14508;50.924;11.600;2024-01-30T05:50:52;1.50;99.90
26954;DHT22;14508;50.924;11.600;2024-01-30T05:53:20;1.50;99.90
26954;DHT22;14508;50.924;11.600;2024-01-30T05:55:48;1.50;99.90
26954;DHT22;14508;50.924;11.600;2024-01-30T05:58:16;1.50;99.90
26954;DHT22;14508;50.924;11.600;2024-01-30T06:00:44;1.50;99.90
26954;DHT22;14508;50.924;11.600;2024-01-30T06:03:12;1.50;99.90
26954;DHT22;14508;50.924;11.600;2024-01-30T06:05:40;1.50;99.90
26954;DHT22;14508;50.924;11.600;2024-01-30T06:08:09;1.60;99.90
26954;DHT22;14508;50.924;11.600;2024-01-30T06:10:37;1.50;99.90
26954;DHT22;14508;50.924;11.600;2024-01-30T06:13:06;1.60;99.90
26954;DHT22;14508;50.924;11.600;2024-01-30T06:15:33;1.50;99.90
26954;DHT22;14508;50.924;11.600;2024-01-30T06:18:01;1.60;99.90
26954;DHT22;14508;50.924;11.600;2024-01-30T06:20:30;1.50;99.90
26954;DHT22;14508;50.924;11.600;2024-01-30T06:22:58;1.50;99.90
26954;DHT22;14508;50.924;11.600;2024-01-30T06:25:27;1.50;99.90
26954;DHT22;14508;50.924;11.600;2024-01-30T06:27:57;1.60;99.90
26954;DHT22;14508;50.924;11.600;2024-01-30T06:30:27;1.60;99.90
26954;DHT22;14508;50.924;11.600;2024-01-30T06:32:55;1.60;99.90
26954;DHT22;14508;50.924;11.600;2024-01-30T06:35:23;1.60;99.90
26954;DHT22;14508;50.924;11.600;2024-01-30T06:37:51;1.60;99.90
26954;DHT22;14508;50.924;11.600;2024-01-30T06:40:19;1.60;99.90
26954;DHT22;14508;50.924;11.600;2024-01-30T06:42:48;1.60;99.90
26954;DHT22;14508;50.924;11.600;2024-01-30T06:45:16;1.70;99.90
26954;DHT22;14508;50.924;11.600;2024-01-30T06:47:44;1.70;99.90
26954;DHT22;14508;50.924;11.600;2024-01-30T06:50:12;1.80;99.90
26954;DHT22;14508;50.924;11.600;2024-01-30T06:52:40;1.80;99.90
26954;DHT22;14508;50.924;11.600;2024-01-30T06:55:09;1.80;99.90
26954;DHT22;14508;50.924;11.600;2024-01-30T06:57:37;1.80;99.90
26954;DHT22;14508;50.924;11.600;2024-01-30T07:00:07;1.90;99.90
26954;DHT22;14508;50.924;11.600;2024-01-30T07:02:35;1.80;99.90
26954;DHT22;14508;50.924;11.600;2024-01-30T07:05:03;1.90;99.90
26954;DHT22;14508;50.924;11.600;2024-01-30T07:07:31;1.80;99.90
26954;DHT22;14508;50.924;11.600;2024-01-30T07:09:59;1.90;99.90
26954;DHT22;14508;50.924;11.600;2024-01-30T07:12:28;1.90;99.90
26954;DHT22;14508;50.924;11.600;2024-01-30T07:14:58;2.00;99.90
26954;DHT22;14508;50.924;11.600;2024-01-30T07:17:27;2.00;99.90
26954;DHT22;14508;50.924;11.600;2024-01-30T07:19:55;2.10;99.90
26954;DHT22;14508;50.924;11.600;2024-01-30T07:22:23;2.10;99.90
26954;DHT22;14508;50.924;11.600;2024-01-30T07:24:51;2.10;99.90
26954;DHT22;14508;50.924;11.600;2024-01-30T07:27:19;2.10;99.90
26954;DHT22;14508;50.924;11.600;2024-01-30T07:29:49;2.20;99.90
26954;DHT22;14508;50.924;11.600;2024-01-30T07:32:16;2.30;99.90
26954;DHT22;14508;50.924;11.600;2024-01-30T07:34:46;2.30;99.90
26954;DHT22;14508;50.924;11.600;2024-01-30T07:37:32;2.30;99.90
26954;DHT22;14508;50.924;11.600;2024-01-30T07:40:01;2.40;99.90
26954;DHT22;14508;50.924;11.600;2024-01-30T07:42:30;2.30;99.90
26954;DHT22;14508;50.924;11.600;2024-01-30T07:44:58;2.50;99.90
26954;DHT22;14508;50.924;11.600;2024-01-30T07:47:26;2.50;99.90
26954;DHT22;14508;50.924;11.600;2024-01-30T07:49:55;2.60;99.90
26954;DHT22;14508;50.924;11.600;2024-01-30T07:52:23;2.60;99.90
26954;DHT22;14508;50.924;11.600;2024-01-30T07:54:51;2.60;99.90
26954;DHT22;14508;50.924;11.600;2024-01-30T07:57:19;2.70;99.90
26954;DHT22;14508;50.924;11.600;2024-01-30T07:59:47;2.80;99.90
26954;DHT22;14508;50.924;11.600;2024-01-30T08:02:15;2.80;99.90
26954;DHT22;14508;50.924;11.600;2024-01-30T08:04:43;2.90;99.90
26954;DHT22;14508;50.924;11.600;2024-01-30T08:07:16;3.00;99.90
26954;DHT22;14508;50.924;11.600;2024-01-30T08:09:45;3.00;99.90
26954;DHT22;14508;50.924;11.600;2024-01-30T08:12:13;3.10;99.90
26954;DHT22;14508;50.924;11.600;2024-01-30T08:14:41;3.10;99.90
26954;DHT22;14508;50.924;11.600;2024-01-30T08:17:09;3.20;99.90
26954;DHT22;14508;50.924;11.600;2024-01-30T08:19:36;3.30;99.90
26954;DHT22;14508;50.924;11.600;2024-01-30T08:22:04;3.30;99.90
26954;DHT22;14508;50.924;11.600;2024-01-30T08:24:34;3.40;99.90
26954;DHT22;14508;50.924;11.600;2024-01-30T08:27:02;3.50;99.90
26954;DHT22;14508;50.924;11.600;2024-01-30T08:29:31;3.60;99.90
26954;DHT22;14508;50.924;11.600;2024-01-30T08:31:59;3.70;99.90
26954;DHT22;14508;50.924;11.600;2024-01-30T08:34:27;3.80;99.90
26954;DHT22;14508;50.924;11.600;2024-01-30T08:36:55;4.00;99.90
26954;DHT22;14508;50.924;11.600;2024-01-30T08:39:23;4.10;99.90
26954;DHT22;14508;50.924;11.600;2024-01-30T08:41:52;4.20;99.90
26954;DHT22;14508;50.924;11.600;2024-01-30T08:44:20;4.30;99.90
26954;DHT22;14508;50.924;11.600;2024-01-30T08:46:48;4.40;99.90
26954;DHT22;14508;50.924;11.600;2024-01-30T08:49:16;4.50;99.90
26954;DHT22;14508;50.924;11.600;2024-01-30T08:51:44;4.70;99.90
26954;DHT22;14508;50.924;11.600;2024-01-30T08:54:13;4.80;99.90
26954;DHT22;14508;50.924;11.600;2024-01-30T08:56:40;4.90;99.90
26954;DHT22;14508;50.924;11.600;2024-01-30T08:59:09;5.00;99.90
26954;DHT22;14508;50.924;11.600;2024-01-30T09:01:39;5.30;99.90
26954;DHT22;14508;50.924;11.600;2024-01-30T09:04:21;5.50;99.90
26954;DHT22;14508;50.924;11.600;2024-01-30T09:06:52;5.70;99.70
26954;DHT22;14508;50.924;11.600;2024-01-30T09:09:20;6.00;98.60
26954;DHT22;14508;50.924;11.600;2024-01-30T09:11:48;6.10;97.70
26954;DHT22;14508;50.924;11.600;2024-01-30T09:14:17;6.20;96.60
26954;DHT22;14508;50.924;11.600;2024-01-30T09:16:45;6.40;95.60
26954;DHT22;14508;50.924;11.600;2024-01-30T09:19:12;6.50;94.90
26954;DHT22;14508;50.924;11.600;2024-01-30T09:21:40;6.60;94.10
26954;DHT22;14508;50.924;11.600;2024-01-30T09:24:08;6.70;93.30
26954;DHT22;14508;50.924;11.600;2024-01-30T09:26:36;6.90;92.40
26954;DHT22;14508;50.924;11.600;2024-01-30T09:29:04;7.00;91.20
26954;DHT22;14508;50.924;11.600;2024-01-30T09:31:33;7.10;90.90
26954;DHT22;14508;50.924;11.600;2024-01-30T09:34:01;7.30;90.60
26954;DHT22;14508;50.924;11.600;2024-01-30T09:36:29;7.40;90.00
26954;DHT22;14508;50.924;11.600;2024-01-30T09:38:57;7.50;88.70
26954;DHT22;14508;50.924;11.600;2024-01-30T09:41:25;7.70;87.50
26954;DHT22;14508;50.924;11.600;2024-01-30T09:43:57;7.80;86.90
26954;DHT22;14508;50.924;11.600;2024-01-30T09:46:28;8.00;85.90
26954;DHT22;14508;50.924;11.600;2024-01-30T09:49:00;8.10;84.50
26954;DHT22;14508;50.924;11.600;2024-01-30T09:51:30;8.20;83.40
26954;DHT22;14508;50.924;11.600;2024-01-30T09:53:58;8.30;82.40
26954;DHT22;14508;50.924;11.600;2024-01-30T09:56:26;8.40;81.40
26954;DHT22;14508;50.924;11.600;2024-01-30T09:58:54;8.50;81.10
26954;DHT22;14508;50.924;11.600;2024-01-30T10:01:22;8.60;80.00
26954;DHT22;14508;50.924;11.600;2024-01-30T10:03:50;8.60;79.60
26954;DHT22;14508;50.924;11.600;2024-01-30T10:06:21;8.70;78.10
26954;DHT22;14508;50.924;11.600;2024-01-30T10:08:52;8.70;77.80
26954;DHT22;14508;50.924;11.600;2024-01-30T10:11:20;8.80;78.00
26954;DHT22;14508;50.924;11.600;2024-01-30T10:13:49;8.90;77.30
26954;DHT22;14508;50.924;11.600;2024-01-30T10:16:17;9.00;77.70
26954;DHT22;14508;50.924;11.600;2024-01-30T10:18:45;9.10;77.20
26954;DHT22;14508;50.924;11.600;2024-01-30T10:21:13;9.20;77.20
26954;DHT22;14508;50.924;11.600;2024-01-30T10:23:43;9.20;76.40
26954;DHT22;14508;50.924;11.600;2024-01-30T10:26:11;9.30;76.50
26954;DHT22;14508;50.924;11.600;2024-01-30T10:28:39;9.30;76.60
26954;DHT22;14508;50.924;11.600;2024-01-30T10:31:07;9.30;76.80
26954;DHT22;14508;50.924;11.600;2024-01-30T10:33:35;9.40;76.80
26954;DHT22;14508;50.924;11.600;2024-01-30T10:36:05;9.40;76.60
26954;DHT22;14508;50.924;11.600;2024-01-30T10:38:33;9.50;76.90
26954;DHT22;14508;50.924;11.600;2024-01-30T10:41:02;9.60;76.80
26954;DHT22;14508;50.924;11.600;2024-01-30T10:43:31;9.70;76.50
26954;DHT22;14508;50.924;11.600;2024-01-30T10:46:10;9.80;76.00
26954;DHT22;14508;50.924;11.600;2024-01-30T10:48:43;9.90;75.90
26954;DHT22;14508;50.924;11.600;2024-01-30T10:51:13;10.10;75.40
26954;DHT22;14508;50.924;11.600;2024-01-30T10:53:44;10.30;75.00
26954;DHT22;14508;50.924;11.600;2024-01-30T10:56:16;10.40;74.20
26954;DHT22;14508;50.924;11.600;2024-01-30T10:58:45;10.60;73.70
26954;DHT22;14508;50.924;11.600;2024-01-30T11:01:14;10.80;73.40
26954;DHT22;14508;50.924;11.600;2024-01-30T11:03:43;10.90;72.90
26954;DHT22;14508;50.924;11.600;2024-01-30T11:06:11;11.00;72.50
26954;DHT22;14508;50.924;11.600;2024-01-30T11:08:40;11.10;72.10
26954;DHT22;14508;50.924;11.600;2024-01-30T11:11:09;11.20;71.60
26954;DHT22;14508;50.924;11.600;2024-01-30T11:13:41;11.30;71.20
26954;DHT22;14508;50.924;11.600;2024-01-30T11:16:11;11.40;70.50
26954;DHT22;14508;50.924;11.600;2024-01-30T11:18:40;11.60;70.20
26954;DHT22;14508;50.924;11.600;2024-01-30T11:21:08;11.70;70.00
26954;DHT22;14508;50.924;11.600;2024-01-30T11:23:35;11.80;69.60
26954;DHT22;14508;50.924;11.600;2024-01-30T11:26:04;11.90;69.30
26954;DHT22;14508;50.924;11.600;2024-01-30T11:28:33;11.90;68.50
26954;DHT22;14508;50.924;11.600;2024-01-30T11:31:07;11.80;68.80
26954;DHT22;14508;50.924;11.600;2024-01-30T11:33:35;11.80;69.00
26954;DHT22;14508;50.924;11.600;2024-01-30T11:36:04;11.80;69.00
26954;DHT22;14508;50.924;11.600;2024-01-30T11:38:33;11.80;69.00
26954;DHT22;14508;50.924;11.600;2024-01-30T11:41:02;11.90;69.20
26954;DHT22;14508;50.924;11.600;2024-01-30T11:43:31;11.90;69.00
26954;DHT22;14508;50.924;11.600;2024-01-30T11:46:00;12.00;69.00
26954;DHT22;14508;50.924;11.600;2024-01-30T11:48:30;12.00;68.90
26954;DHT22;14508;50.924;11.600;2024-01-30T11:50:58;12.00;68.70
26954;DHT22;14508;50.924;11.600;2024-01-30T11:53:27;12.00;69.30
26954;DHT22;14508;50.924;11.600;2024-01-30T11:55:55;12.10;69.20
26954;DHT22;14508;50.924;11.600;2024-01-30T11:58:24;12.20;69.00
26954;DHT22;14508;50.924;11.600;2024-01-30T12:00:53;12.20;68.60
26954;DHT22;14508;50.924;11.600;2024-01-30T12:03:23;12.30;68.60
26954;DHT22;14508;50.924;11.600;2024-01-30T12:05:56;12.30;68.40
26954;DHT22;14508;50.924;11.600;2024-01-30T12:08:26;12.40;68.30
26954;DHT22;14508;50.924;11.600;2024-01-30T12:10:56;12.40;68.00
26954;DHT22;14508;50.924;11.600;2024-01-30T12:13:25;12.40;67.20
26954;DHT22;14508;50.924;11.600;2024-01-30T12:15:58;12.50;67.30
26954;DHT22;14508;50.924;11.600;2024-01-30T12:18:27;12.50;67.10
26954;DHT22;14508;50.924;11.600;2024-01-30T12:20:59;12.50;66.80
26954;DHT22;14508;50.924;11.600;2024-01-30T12:23:28;12.40;66.90
26954;DHT22;14508;50.924;11.600;2024-01-30T12:25:57;12.40;67.30
26954;DHT22;14508;50.924;11.600;2024-01-30T12:28:25;12.30;67.30
26954;DHT22;14508;50.924;11.600;2024-01-30T12:30:55;12.20;67.50
26954;DHT22;14508;50.924;11.600;2024-01-30T12:33:26;12.10;67.60
26954;DHT22;14508;50.924;11.600;2024-01-30T12:35:54;12.10;67.70
26954;DHT22;14508;50.924;11.600;2024-01-30T12:38:31;12.10;68.00
26954;DHT22;14508;50.924;11.600;2024-01-30T12:40:59;12.10;67.80
26954;DHT22;14508;50.924;11.600;2024-01-30T12:43:27;12.10;68.00
26954;DHT22;14508;50.924;11.600;2024-01-30T12:46:05;12.10;68.20
26954;DHT22;14508;50.924;11.600;2024-01-30T12:48:33;12.10;68.10
26954;DHT22;14508;50.924;11.600;2024-01-30T12:51:01;12.10;68.00
26954;DHT22;14508;50.924;11.600;2024-01-30T12:53:31;12.00;67.10
26954;DHT22;14508;50.924;11.600;2024-01-30T12:55:59;12.00;67.70
26954;DHT22;14508;50.924;11.600;2024-01-30T12:58:27;11.90;67.80
26954;DHT22;14508;50.924;11.600;2024-01-30T13:00:55;11.90;68.10
26954;DHT22;14508;50.924;11.600;2024-01-30T13:03:24;12.00;68.10
26954;DHT22;14508;50.924;11.600;2024-01-30T13:05:52;12.00;68.30
26954;DHT22;14508;50.924;11.600;2024-01-30T13:08:21;12.00;68.20
26954;DHT22;14508;50.924;11.600;2024-01-30T13:10:50;12.00;68.20
26954;DHT22;14508;50.924;11.600;2024-01-30T13:13:18;12.00;68.10
26954;DHT22;14508;50.924;11.600;2024-01-30T13:15:47;12.00;68.10
26954;DHT22;14508;50.924;11.600;2024-01-30T13:18:15;12.00;67.90
26954;DHT22;14508;50.924;11.600;2024-01-30T13:20:43;12.00;68.30
26954;DHT22;14508;50.924;11.600;2024-01-30T13:23:11;12.00;68.30
26954;DHT22;14508;50.924;11.600;2024-01-30T13:25:39;11.90;68.30
26954;DHT22;14508;50.924;11.600;2024-01-30T13:28:08;11.90;68.80
26954;DHT22;14508;50.924;11.600;2024-01-30T13:30:36;11.90;68.80
26954;DHT22;14508;50.924;11.600;2024-01-30T13:33:05;12.00;69.00
26954;DHT22;14508;50.924;11.600;2024-01-30T13:35:33;12.00;68.90
26954;DHT22;14508;50.924;11.600;2024-01-30T13:38:01;12.00;68.70
26954;DHT22;14508;50.924;11.600;2024-01-30T13:40:29;12.10;68.70
26954;DHT22;14508;50.924;11.600;2024-01-30T13:42:57;12.00;68.60
26954;DHT22;14508;50.924;11.600;2024-01-30T13:45:26;12.00;68.60
26954;DHT22;14508;50.924;11.600;2024-01-30T13:47:54;12.00;68.90
26954;DHT22;14508;50.924;11.600;2024-01-30T13:50:22;11.90;68.80
26954;DHT22;14508;50.924;11.600;2024-01-30T13:52:50;11.90;69.00
26954;DHT22;14508;50.924;11.600;2024-01-30T13:55:18;11.90;69.10
26954;DHT22;14508;50.924;11.600;2024-01-30T13:57:46;11.80;69.00
26954;DHT22;14508;50.924;11.600;2024-01-30T14:00:17;11.80;69.30
26954;DHT22;14508;50.924;11.600;2024-01-30T14:02:47;11.80;69.40
26954;DHT22;14508;50.924;11.600;2024-01-30T14:05:14;11.80;69.60
26954;DHT22;14508;50.924;11.600;2024-01-30T14:07:43;11.80;69.60
26954;DHT22;14508;50.924;11.600;2024-01-30T14:10:12;11.80;69.70
26954;DHT22;14508;50.924;11.600;2024-01-30T14:12:42;11.80;69.80
26954;DHT22;14508;50.924;11.600;2024-01-30T14:15:10;11.80;69.60
26954;DHT22;14508;50.924;11.600;2024-01-30T14:17:54;11.70;70.20
26954;DHT22;14508;50.924;11.600;2024-01-30T14:20:23;11.70;70.30
26954;DHT22;14508;50.924;11.600;2024-01-30T14:22:51;11.70;70.40
26954;DHT22;14508;50.924;11.600;2024-01-30T14:25:20;11.70;70.60
26954;DHT22;14508;50.924;11.600;2024-01-30T14:27:48;11.70;70.50
26954;DHT22;14508;50.924;11.600;2024-01-30T14:30:16;11.70;70.50
26954;DHT22;14508;50.924;11.600;2024-01-30T14:32:44;11.70;70.80
26954;DHT22;14508;50.924;11.600;2024-01-30T14:35:15;11.60;70.90
26954;DHT22;14508;50.924;11.600;2024-01-30T14:37:43;11.60;71.30
26954;DHT22;14508;50.924;11.600;2024-01-30T14:40:11;11.60;71.70
26954;DHT22;14508;50.924;11.600;2024-01-30T14:42:39;11.60;71.80
26954;DHT22;14508;50.924;11.600;2024-01-30T14:45:07;11.50;72.20
26954;DHT22;14508;50.924;11.600;2024-01-30T14:47:36;11.50;72.20
26954;DHT22;14508;50.924;11.600;2024-01-30T14:50:05;11.50;72.30
26954;DHT22;14508;50.924;11.600;2024-01-30T14:52:36;11.50;72.40
26954;DHT22;14508;50.924;11.600;2024-01-30T14:55:07;11.40;72.50
26954;DHT22;14508;50.924;11.600;2024-01-30T14:57:36;11.40;72.80
26954;DHT22;14508;50.924;11.600;2024-01-30T15:00:06;11.30;73.10
26954;DHT22;14508;50.924;11.600;2024-01-30T15:02:34;11.30;73.20
26954;DHT22;14508;50.924;11.600;2024-01-30T15:05:01;11.20;73.40
26954;DHT22;14508;50.924;11.600;2024-01-30T15:07:30;11.20;73.70
26954;DHT22;14508;50.924;11.600;2024-01-30T15:10:08;11.10;73.90
26954;DHT22;14508;50.924;11.600;2024-01-30T15:12:37;11.10;74.40
26954;DHT22;14508;50.924;11.600;2024-01-30T15:15:07;11.10;75.10
26954;DHT22;14508;50.924;11.600;2024-01-30T15:17:36;11.00;75.00
26954;DHT22;14508;50.924;11.600;2024-01-30T15:20:05;11.00;75.30
26954;DHT22;14508;50.924;11.600;2024-01-30T15:22:34;11.00;75.70
26954;DHT22;14508;50.924;11.600;2024-01-30T15:25:02;11.00;76.00
26954;DHT22;14508;50.924;11.600;2024-01-30T15:27:32;10.90;76.60
26954;DHT22;14508;50.924;11.600;2024-01-30T15:30:00;10.90;76.70
26954;DHT22;14508;50.924;11.600;2024-01-30T15:32:28;10.80;76.80
26954;DHT22;14508;50.924;11.600;2024-01-30T15:34:55;10.70;76.90
26954;DHT22;14508;50.924;11.600;2024-01-30T15:37:27;10.60;77.20